sensor_id;sensor_type;location;lat;lon;timestamp;pressure;altitude;pressure_sealevel;temperature;humidity
55759;BME280;41678;52.126;20.664;2022-10-16T00:01:23;100402.94;;;13.48;88.27
55759;BME280;41678;52.126;20.664;2022-10-16T00:06:43;100403.00;;;13.46;88.37
55759;BME280;41678;52.126;20.664;2022-10-16T00:12:03;100399.47;;;13.45;88.26
55759;BME280;41678;52.126;20.664;2022-10-16T00:17:26;100401.22;;;13.46;88.63
55759;BME280;41678;52.126;20.664;2022-10-16T00:22:45;100402.03;;;13.49;88.08
55759;BME280;41678;52.126;20.664;2022-10-16T00:28:04;100405.50;;;13.52;88.19
55759;BME280;41678;52.126;20.664;2022-10-16T00:33:24;100399.41;;;13.49;88.16
55759;BME280;41678;52.126;20.664;2022-10-16T00:38:44;100405.50;;;13.52;88.35
55759;BME280;41678;52.126;20.664;2022-10-16T00:50:32;100405.56;;;13.51;88.58
55759;BME280;41678;52.126;20.664;2022-10-16T00:55:52;100405.56;;;13.51;88.47
55759;BME280;41678;52.126;20.664;2022-10-16T01:01:12;100409.03;;;13.53;88.68
55759;BME280;41678;52.126;20.664;2022-10-16T01:06:40;100413.41;;;13.54;88.44
55759;BME280;41678;52.126;20.664;2022-10-16T01:12:20;100417.88;;;13.50;88.32
55759;BME280;41678;52.126;20.664;2022-10-16T01:17:56;100428.44;;;13.52;88.58
55759;BME280;41678;52.126;20.664;2022-10-16T01:28:54;100439.94;;;13.51;88.52
55759;BME280;41678;52.126;20.664;2022-10-16T01:34:22;100443.53;;;13.46;88.66
55759;BME280;41678;52.126;20.664;2022-10-16T01:39:47;100436.53;;;13.42;88.69
55759;BME280;41678;52.126;20.664;2022-10-16T01:45:13;100434.75;;;13.44;88.64
55759;BME280;41678;52.126;20.664;2022-10-16T01:50:37;100434.78;;;13.41;88.32
55759;BME280;41678;52.126;20.664;2022-10-16T01:56:00;100423.34;;;13.41;88.37
55759;BME280;41678;52.126;20.664;2022-10-16T02:01:23;100419.91;;;13.37;88.55
55759;BME280;41678;52.126;20.664;2022-10-16T02:06:44;100417.25;;;13.37;88.27
55759;BME280;41678;52.126;20.664;2022-10-16T02:12:15;100425.22;;;13.36;88.53
55759;BME280;41678;52.126;20.664;2022-10-16T02:17:38;100419.94;;;13.34;88.56
55759;BME280;41678;52.126;20.664;2022-10-16T02:22:58;100425.28;;;13.32;88.38
55759;BME280;41678;52.126;20.664;2022-10-16T02:28:23;100433.16;;;13.34;88.31
55759;BME280;41678;52.126;20.664;2022-10-16T02:33:45;100435.03;;;13.29;88.50
55759;BME280;41678;52.126;20.664;2022-10-16T02:39:06;100441.16;;;13.31;88.45
55759;BME280;41678;52.126;20.664;2022-10-16T02:44:26;100445.66;;;13.27;88.34
55759;BME280;41678;52.126;20.664;2022-10-16T02:49:46;100443.03;;;13.26;88.35
55759;BME280;41678;52.126;20.664;2022-10-16T02:55:05;100444.81;;;13.25;88.27
55759;BME280;41678;52.126;20.664;2022-10-16T03:00:25;100449.31;;;13.22;88.29
55759;BME280;41678;52.126;20.664;2022-10-16T03:05:45;100455.50;;;13.21;88.23
55759;BME280;41678;52.126;20.664;2022-10-16T03:11:08;100453.75;;;13.20;88.51
55759;BME280;41678;52.126;20.664;2022-10-16T03:16:27;100460.78;;;13.21;88.56
55759;BME280;41678;52.126;20.664;2022-10-16T03:21:48;100458.19;;;13.17;88.43
55759;BME280;41678;52.126;20.664;2022-10-16T03:27:08;100467.00;;;13.16;88.55
55759;BME280;41678;52.126;20.664;2022-10-16T03:32:27;100473.25;;;13.14;88.57
55759;BME280;41678;52.126;20.664;2022-10-16T03:37:47;100475.91;;;13.12;88.33
55759;BME280;41678;52.126;20.664;2022-10-16T03:43:07;100476.00;;;13.08;88.61
55759;BME280;41678;52.126;20.664;2022-10-16T03:48:27;100477.78;;;13.07;88.36
55759;BME280;41678;52.126;20.664;2022-10-16T03:53:47;100483.97;;;13.06;88.28
55759;BME280;41678;52.126;20.664;2022-10-16T03:59:07;100484.91;;;13.02;88.38
55759;BME280;41678;52.126;20.664;2022-10-16T04:04:27;100478.81;;;12.98;88.39
55759;BME280;41678;52.126;20.664;2022-10-16T04:09:46;100483.28;;;12.95;88.44
55759;BME280;41678;52.126;20.664;2022-10-16T04:15:06;100491.31;;;12.88;88.00
55759;BME280;41678;52.126;20.664;2022-10-16T04:20:27;100504.63;;;12.82;88.21
55759;BME280;41678;52.126;20.664;2022-10-16T04:25:47;100510.94;;;12.75;88.37
55759;BME280;41678;52.126;20.664;2022-10-16T04:31:06;100513.66;;;12.69;88.48
55759;BME280;41678;52.126;20.664;2022-10-16T04:36:26;100505.03;;;12.60;88.21
55759;BME280;41678;52.126;20.664;2022-10-16T04:41:46;100511.28;;;12.55;88.47
55759;BME280;41678;52.126;20.664;2022-10-16T04:47:06;100528.06;;;12.49;88.32
55759;BME280;41678;52.126;20.664;2022-10-16T04:52:25;100530.84;;;12.41;88.24
55759;BME280;41678;52.126;20.664;2022-10-16T04:57:45;100537.94;;;12.38;88.38
55759;BME280;41678;52.126;20.664;2022-10-16T05:03:05;100537.19;;;12.29;88.38
55759;BME280;41678;52.126;20.664;2022-10-16T05:08:27;100532.88;;;12.22;88.60
55759;BME280;41678;52.126;20.664;2022-10-16T05:13:47;100539.09;;;12.18;88.46
55759;BME280;41678;52.126;20.664;2022-10-16T05:19:07;100534.78;;;12.14;88.63
55759;BME280;41678;52.126;20.664;2022-10-16T05:24:26;100525.13;;;12.10;88.39
55759;BME280;41678;52.126;20.664;2022-10-16T05:29:47;100534.00;;;12.04;88.47
55759;BME280;41678;52.126;20.664;2022-10-16T05:35:07;100536.66;;;12.01;88.44
55759;BME280;41678;52.126;20.664;2022-10-16T05:40:26;100546.38;;;11.97;88.54
55759;BME280;41678;52.126;20.664;2022-10-16T05:46:06;100546.38;;;11.97;88.55
55759;BME280;41678;52.126;20.664;2022-10-16T05:51:25;100544.63;;;11.96;88.79
55759;BME280;41678;52.126;20.664;2022-10-16T05:56:45;100552.56;;;11.95;88.36
55759;BME280;41678;52.126;20.664;2022-10-16T06:02:05;100564.00;;;11.95;88.66
55759;BME280;41678;52.126;20.664;2022-10-16T06:07:25;100567.53;;;11.94;88.84
55759;BME280;41678;52.126;20.664;2022-10-16T06:12:44;100565.72;;;11.99;88.85
55759;BME280;41678;52.126;20.664;2022-10-16T06:18:05;100574.47;;;12.04;89.14
55759;BME280;41678;52.126;20.664;2022-10-16T06:23:25;100577.91;;;12.10;89.19
55759;BME280;41678;52.126;20.664;2022-10-16T06:28:45;100567.31;;;12.13;89.04
55759;BME280;41678;52.126;20.664;2022-10-16T06:34:04;100589.22;;;12.21;89.02
55759;BME280;41678;52.126;20.664;2022-10-16T06:39:28;100580.38;;;12.24;89.21
55759;BME280;41678;52.126;20.664;2022-10-16T06:44:48;100588.19;;;12.31;89.06
55759;BME280;41678;52.126;20.664;2022-10-16T06:50:08;100595.97;;;12.41;89.21
55759;BME280;41678;52.126;20.664;2022-10-16T06:55:28;100599.44;;;12.46;89.39
55759;BME280;41678;52.126;20.664;2022-10-16T07:00:48;100587.91;;;12.50;89.27
55759;BME280;41678;52.126;20.664;2022-10-16T07:06:11;100586.03;;;12.58;89.51
55759;BME280;41678;52.126;20.664;2022-10-16T07:11:31;100584.16;;;12.67;89.10
55759;BME280;41678;52.126;20.664;2022-10-16T07:16:51;100600.66;;;12.81;89.15
55759;BME280;41678;52.126;20.664;2022-10-16T07:22:11;100593.56;;;12.83;89.33
55759;BME280;41678;52.126;20.664;2022-10-16T07:27:30;100612.72;;;12.98;89.38
55759;BME280;41678;52.126;20.664;2022-10-16T07:32:50;100601.94;;;13.12;89.44
55759;BME280;41678;52.126;20.664;2022-10-16T07:38:10;100581.44;;;13.25;89.78
55759;BME280;41678;52.126;20.664;2022-10-16T07:43:30;100595.22;;;13.42;89.41
55759;BME280;41678;52.126;20.664;2022-10-16T07:48:50;100597.53;;;13.63;89.71
55759;BME280;41678;52.126;20.664;2022-10-16T07:54:10;100624.44;;;13.85;89.61
55759;BME280;41678;52.126;20.664;2022-10-16T07:59:30;100633.81;;;14.03;89.45
55759;BME280;41678;52.126;20.664;2022-10-16T08:04:50;100627.22;;;14.21;89.50
55759;BME280;41678;52.126;20.664;2022-10-16T08:10:18;100635.56;;;14.45;89.57
55759;BME280;41678;52.126;20.664;2022-10-16T08:15:38;100636.03;;;14.64;89.58
55759;BME280;41678;52.126;20.664;2022-10-16T08:20:59;100643.50;;;14.86;89.53
55759;BME280;41678;52.126;20.664;2022-10-16T08:26:19;100648.47;;;15.00;89.59
55759;BME280;41678;52.126;20.664;2022-10-16T08:31:39;100646.34;;;15.14;89.66
55759;BME280;41678;52.126;20.664;2022-10-16T08:36:59;100641.63;;;15.27;89.57
55759;BME280;41678;52.126;20.664;2022-10-16T08:42:43;100651.13;;;15.36;89.51
55759;BME280;41678;52.126;20.664;2022-10-16T08:53:56;100685.13;;;15.55;89.71
55759;BME280;41678;52.126;20.664;2022-10-16T08:59:16;100685.84;;;15.62;89.46
55759;BME280;41678;52.126;20.664;2022-10-16T09:04:46;100675.84;;;15.71;89.63
55759;BME280;41678;52.126;20.664;2022-10-16T09:10:36;100660.66;;;15.77;89.66
55759;BME280;41678;52.126;20.664;2022-10-16T09:16:22;100661.41;;;15.82;89.51
55759;BME280;41678;52.126;20.664;2022-10-16T09:21:44;100654.16;;;15.89;89.14
55759;BME280;41678;52.126;20.664;2022-10-16T09:27:06;100671.78;;;15.93;89.47
55759;BME280;41678;52.126;20.664;2022-10-16T09:32:28;100659.09;;;16.03;89.40
55759;BME280;41678;52.126;20.664;2022-10-16T09:37:50;100662.47;;;16.09;89.25
55759;BME280;41678;52.126;20.664;2022-10-16T09:43:24;100659.47;;;16.20;89.08
55759;BME280;41678;52.126;20.664;2022-10-16T09:48:50;100663.75;;;16.26;89.24
55759;BME280;41678;52.126;20.664;2022-10-16T09:54:19;100667.09;;;16.33;88.95
55759;BME280;41678;52.126;20.664;2022-10-16T09:59:54;100678.28;;;16.44;88.73
55759;BME280;41678;52.126;20.664;2022-10-16T10:10:47;100676.19;;;16.55;88.78
55759;BME280;41678;52.126;20.664;2022-10-16T10:16:07;100670.69;;;16.62;88.07
55759;BME280;41678;52.126;20.664;2022-10-16T10:21:27;100665.16;;;16.68;88.58
55759;BME280;41678;52.126;20.664;2022-10-16T10:26:57;100675.63;;;16.74;88.47
55759;BME280;41678;52.126;20.664;2022-10-16T10:37:54;100670.88;;;16.84;88.64
55759;BME280;41678;52.126;20.664;2022-10-16T10:55:08;100650.94;;;16.99;88.21
55759;BME280;41678;52.126;20.664;2022-10-16T11:06:32;100648.84;;;17.09;88.36
55759;BME280;41678;52.126;20.664;2022-10-16T11:11:59;100654.06;;;17.12;88.12
55759;BME280;41678;52.126;20.664;2022-10-16T11:17:29;100655.66;;;17.18;88.38
55759;BME280;41678;52.126;20.664;2022-10-16T11:23:16;100651.81;;;17.26;88.29
55759;BME280;41678;52.126;20.664;2022-10-16T11:28:45;100664.03;;;17.32;88.17
55759;BME280;41678;52.126;20.664;2022-10-16T11:39:44;100651.28;;;17.42;88.34
55759;BME280;41678;52.126;20.664;2022-10-16T11:45:18;100650.22;;;17.48;88.01
55759;BME280;41678;52.126;20.664;2022-10-16T11:50:57;100631.59;;;17.48;87.92
55759;BME280;41678;52.126;20.664;2022-10-16T11:56:21;100648.06;;;17.59;87.73
55759;BME280;41678;52.126;20.664;2022-10-16T12:01:44;100657.78;;;17.60;87.68
55759;BME280;41678;52.126;20.664;2022-10-16T12:07:09;100656.03;;;17.59;87.36
55759;BME280;41678;52.126;20.664;2022-10-16T12:17:54;100651.44;;;17.63;87.00
55759;BME280;41678;52.126;20.664;2022-10-16T12:23:20;100657.44;;;17.69;86.86
55759;BME280;41678;52.126;20.664;2022-10-16T12:28:43;100663.50;;;17.75;86.99
55759;BME280;41678;52.126;20.664;2022-10-16T12:34:21;100654.47;;;17.79;87.05
55759;BME280;41678;52.126;20.664;2022-10-16T12:39:42;100660.44;;;17.86;87.24
55759;BME280;41678;52.126;20.664;2022-10-16T12:45:22;100662.81;;;17.93;87.17
55759;BME280;41678;52.126;20.664;2022-10-16T12:50:43;100663.59;;;17.97;87.57
55759;BME280;41678;52.126;20.664;2022-10-16T12:56:12;100664.03;;;18.10;87.15
55759;BME280;41678;52.126;20.664;2022-10-16T13:13:19;100691.97;;;18.23;87.42
55759;BME280;41678;52.126;20.664;2022-10-16T13:30:15;100706.09;;;18.25;87.40
55759;BME280;41678;52.126;20.664;2022-10-16T13:35:36;100696.47;;;18.21;87.06
55759;BME280;41678;52.126;20.664;2022-10-16T13:41:01;100687.56;;;18.22;87.10
55759;BME280;41678;52.126;20.664;2022-10-16T13:46:23;100698.22;;;18.22;87.36
55759;BME280;41678;52.126;20.664;2022-10-16T13:51:56;100690.44;;;18.16;87.30
55759;BME280;41678;52.126;20.664;2022-10-16T13:57:16;100700.25;;;18.16;87.28
55759;BME280;41678;52.126;20.664;2022-10-16T14:02:38;100687.03;;;18.12;87.52
55759;BME280;41678;52.126;20.664;2022-10-16T14:08:00;100710.00;;;18.15;87.54
55759;BME280;41678;52.126;20.664;2022-10-16T14:29:49;100717.50;;;18.04;87.95
55759;BME280;41678;52.126;20.664;2022-10-16T14:35:35;100710.44;;;18.03;88.02
55759;BME280;41678;52.126;20.664;2022-10-16T14:40:57;100715.84;;;17.99;87.90
55759;BME280;41678;52.126;20.664;2022-10-16T14:46:20;100720.38;;;17.97;87.96
55759;BME280;41678;52.126;20.664;2022-10-16T14:51:41;100725.75;;;17.96;88.35
55759;BME280;41678;52.126;20.664;2022-10-16T14:57:01;100721.53;;;17.90;88.37
55759;BME280;41678;52.126;20.664;2022-10-16T15:02:34;100727.81;;;17.88;88.35
55759;BME280;41678;52.126;20.664;2022-10-16T15:07:56;100729.78;;;17.82;88.24
55759;BME280;41678;52.126;20.664;2022-10-16T15:13:16;100753.75;;;17.82;88.17
55759;BME280;41678;52.126;20.664;2022-10-16T15:18:35;100754.78;;;17.78;88.48
55759;BME280;41678;52.126;20.664;2022-10-16T15:23:56;100748.69;;;17.75;88.74
55759;BME280;41678;52.126;20.664;2022-10-16T15:29:16;100752.38;;;17.70;88.49
55759;BME280;41678;52.126;20.664;2022-10-16T15:34:36;100753.28;;;17.69;88.78
55759;BME280;41678;52.126;20.664;2022-10-16T15:39:56;100757.03;;;17.64;89.02
55759;BME280;41678;52.126;20.664;2022-10-16T15:45:16;100768.66;;;17.61;88.98
55759;BME280;41678;52.126;20.664;2022-10-16T15:50:37;100770.59;;;17.56;88.89
55759;BME280;41678;52.126;20.664;2022-10-16T15:55:57;100771.53;;;17.55;88.82
55759;BME280;41678;52.126;20.664;2022-10-16T16:01:17;100784.16;;;17.48;88.64
55759;BME280;41678;52.126;20.664;2022-10-16T16:06:37;100790.47;;;17.46;89.18
55759;BME280;41678;52.126;20.664;2022-10-16T16:11:58;100790.66;;;17.39;88.80
55759;BME280;41678;52.126;20.664;2022-10-16T16:17:20;100796.97;;;17.37;88.84
55759;BME280;41678;52.126;20.664;2022-10-16T16:22:40;100797.16;;;17.31;88.87
55759;BME280;41678;52.126;20.664;2022-10-16T16:28:00;100803.53;;;17.25;88.88
55759;BME280;41678;52.126;20.664;2022-10-16T16:33:19;100808.97;;;17.20;89.12
55759;BME280;41678;52.126;20.664;2022-10-16T16:38:39;100809.16;;;17.16;88.98
55759;BME280;41678;52.126;20.664;2022-10-16T16:44:04;100821.69;;;17.10;89.13
55759;BME280;41678;52.126;20.664;2022-10-16T16:49:24;100816.56;;;17.04;89.06
55759;BME280;41678;52.126;20.664;2022-10-16T16:54:44;100823.00;;;16.95;89.45
55759;BME280;41678;52.126;20.664;2022-10-16T17:00:11;100832.06;;;16.88;89.27
55759;BME280;41678;52.126;20.664;2022-10-16T17:05:30;100849.03;;;16.84;89.04
55759;BME280;41678;52.126;20.664;2022-10-16T17:10:50;100851.94;;;16.75;89.10
55759;BME280;41678;52.126;20.664;2022-10-16T17:16:12;100853.84;;;16.71;89.02
55759;BME280;41678;52.126;20.664;2022-10-16T17:21:32;100861.13;;;16.64;89.05
55759;BME280;41678;52.126;20.664;2022-10-16T17:26:52;100855.19;;;16.54;89.07
55759;BME280;41678;52.126;20.664;2022-10-16T17:32:11;100883.56;;;16.52;89.12
55759;BME280;41678;52.126;20.664;2022-10-16T17:37:32;100878.41;;;16.48;89.38
55759;BME280;41678;52.126;20.664;2022-10-16T17:42:52;100869.00;;;16.34;89.07
55759;BME280;41678;52.126;20.664;2022-10-16T17:48:12;100892.88;;;16.36;89.20
55759;BME280;41678;52.126;20.664;2022-10-16T17:53:32;100903.59;;;16.33;89.37
55759;BME280;41678;52.126;20.664;2022-10-16T17:58:54;100898.53;;;16.23;89.27
55759;BME280;41678;52.126;20.664;2022-10-16T18:04:15;100910.03;;;16.22;89.17
55759;BME280;41678;52.126;20.664;2022-10-16T18:09:35;100912.84;;;16.16;89.17
55759;BME280;41678;52.126;20.664;2022-10-16T18:14:55;100901.44;;;16.12;88.84
55759;BME280;41678;52.126;20.664;2022-10-16T18:20:17;100919.19;;;16.10;89.22
55759;BME280;41678;52.126;20.664;2022-10-16T18:25:37;100921.94;;;16.06;89.33
55759;BME280;41678;52.126;20.664;2022-10-16T18:31:03;100910.56;;;16.00;89.30
55759;BME280;41678;52.126;20.664;2022-10-16T18:36:28;100921.22;;;15.99;89.42
55759;BME280;41678;52.126;20.664;2022-10-16T18:41:48;100919.63;;;15.92;89.59
55759;BME280;41678;52.126;20.664;2022-10-16T18:47:09;100925.03;;;15.87;89.51
55759;BME280;41678;52.126;20.664;2022-10-16T18:52:29;100926.91;;;15.82;89.03
55759;BME280;41678;52.126;20.664;2022-10-16T18:57:50;100934.16;;;15.75;89.34
55759;BME280;41678;52.126;20.664;2022-10-16T19:03:10;100939.59;;;15.69;89.31
55759;BME280;41678;52.126;20.664;2022-10-16T19:08:30;100947.66;;;15.64;89.41
55759;BME280;41678;52.126;20.664;2022-10-16T19:13:52;100958.41;;;15.58;89.19
55759;BME280;41678;52.126;20.664;2022-10-16T19:19:16;100966.47;;;15.53;89.29
55759;BME280;41678;52.126;20.664;2022-10-16T19:24:40;100977.28;;;15.44;89.23
55759;BME280;41678;52.126;20.664;2022-10-16T19:30:00;100983.59;;;15.38;89.24
55759;BME280;41678;52.126;20.664;2022-10-16T19:35:19;100985.47;;;15.33;89.21
55759;BME280;41678;52.126;20.664;2022-10-16T19:40:40;100994.44;;;15.26;89.36
55759;BME280;41678;52.126;20.664;2022-10-16T19:46:10;100998.06;;;15.22;89.48
55759;BME280;41678;52.126;20.664;2022-10-16T19:51:31;101013.22;;;15.17;89.29
55759;BME280;41678;52.126;20.664;2022-10-16T19:56:50;101009.81;;;15.10;89.35
55759;BME280;41678;52.126;20.664;2022-10-16T20:02:10;101016.09;;;15.04;89.39
55759;BME280;41678;52.126;20.664;2022-10-16T20:07:30;101017.00;;;15.03;89.14
55759;BME280;41678;52.126;20.664;2022-10-16T20:12:50;101026.78;;;14.98;89.19
55759;BME280;41678;52.126;20.664;2022-10-16T20:18:10;101036.63;;;14.93;89.42
55759;BME280;41678;52.126;20.664;2022-10-16T20:23:30;101035.84;;;14.87;89.61
55759;BME280;41678;52.126;20.664;2022-10-16T20:28:51;101042.91;;;14.85;89.55
55759;BME280;41678;52.126;20.664;2022-10-16T20:34:11;101050.91;;;14.82;89.41
55759;BME280;41678;52.126;20.664;2022-10-16T20:39:32;101058.88;;;14.82;89.47
55759;BME280;41678;52.126;20.664;2022-10-16T20:44:51;101066.88;;;14.79;89.42
55759;BME280;41678;52.126;20.664;2022-10-16T20:50:11;101068.69;;;14.79;89.49
55759;BME280;41678;52.126;20.664;2022-10-16T20:55:36;101071.41;;;14.74;89.47
55759;BME280;41678;52.126;20.664;2022-10-16T21:01:04;101066.09;;;14.72;89.69
55759;BME280;41678;52.126;20.664;2022-10-16T21:06:25;101067.91;;;14.72;89.51
55759;BME280;41678;52.126;20.664;2022-10-16T21:11:45;101068.78;;;14.71;89.53
55759;BME280;41678;52.126;20.664;2022-10-16T21:17:04;101069.63;;;14.70;89.74
55759;BME280;41678;52.126;20.664;2022-10-16T21:22:28;101073.25;;;14.66;89.46
55759;BME280;41678;52.126;20.664;2022-10-16T21:27:48;101083.91;;;14.63;89.54
55759;BME280;41678;52.126;20.664;2022-10-16T21:33:08;101094.50;;;14.63;89.35
55759;BME280;41678;52.126;20.664;2022-10-16T21:38:28;101082.22;;;14.55;89.58
55759;BME280;41678;52.126;20.664;2022-10-16T21:43:47;101096.38;;;14.54;89.35
55759;BME280;41678;52.126;20.664;2022-10-16T21:49:15;101093.84;;;14.48;89.55
55759;BME280;41678;52.126;20.664;2022-10-16T21:54:36;101100.03;;;14.47;89.21
55759;BME280;41678;52.126;20.664;2022-10-16T21:59:56;101100.94;;;14.44;89.34
55759;BME280;41678;52.126;20.664;2022-10-16T22:05:15;101108.09;;;14.38;89.43
55759;BME280;41678;52.126;20.664;2022-10-16T22:10:35;101111.72;;;14.34;89.51
55759;BME280;41678;52.126;20.664;2022-10-16T22:15:55;101112.66;;;14.29;89.47
55759;BME280;41678;52.126;20.664;2022-10-16T22:21:15;101113.63;;;14.22;89.35
55759;BME280;41678;52.126;20.664;2022-10-16T22:26:36;101119.81;;;14.21;89.37
55759;BME280;41678;52.126;20.664;2022-10-16T22:31:56;101123.47;;;14.14;89.45
55759;BME280;41678;52.126;20.664;2022-10-16T22:37:16;101139.41;;;14.09;89.38
55759;BME280;41678;52.126;20.664;2022-10-16T22:42:36;101146.53;;;14.04;89.50
55759;BME280;41678;52.126;20.664;2022-10-16T22:47:56;101153.66;;;13.97;89.41
55759;BME280;41678;52.126;20.664;2022-10-16T22:53:16;101159.00;;;13.91;89.61
55759;BME280;41678;52.126;20.664;2022-10-16T22:58:35;101148.53;;;13.83;89.64
55759;BME280;41678;52.126;20.664;2022-10-16T23:03:55;101158.25;;;13.81;89.30
55759;BME280;41678;52.126;20.664;2022-10-16T23:09:15;101154.81;;;13.73;89.80
55759;BME280;41678;52.126;20.664;2022-10-16T23:14:35;101152.28;;;13.62;89.60
55759;BME280;41678;52.126;20.664;2022-10-16T23:19:54;101162.88;;;13.59;89.66
55759;BME280;41678;52.126;20.664;2022-10-16T23:25:14;101173.50;;;13.56;89.53
55759;BME280;41678;52.126;20.664;2022-10-16T23:30:34;101181.53;;;13.50;89.68
55759;BME280;41678;52.126;20.664;2022-10-16T23:35:56;101191.25;;;13.44;89.54
55759;BME280;41678;52.126;20.664;2022-10-16T23:41:16;101195.66;;;13.41;89.25
55759;BME280;41678;52.126;20.664;2022-10-16T23:46:37;101201.00;;;13.35;89.24
55759;BME280;41678;52.126;20.664;2022-10-16T23:51:56;101210.72;;;13.31;89.48
55759;BME280;41678;52.126;20.664;2022-10-16T23:57:16;101209.00;;;13.27;89.55
